Latest Weather Observations for Armidale Airport

IDN60801

Issued at 8:02 pm EST Thursday 5 May 2016 (issued every 30 minutes, with the page automatically refreshed every 10 minutes)

About weather observations | Map of weather stations | Latest weather observations for NSW | Other Formats
Station Details ID: 056238 Name: ARMIDALE AIRPORT AWS Lat: -30.53 Lon: 151.62 Height: 1079.0 m
Data from the previous 72 hours. | See also: Recent months at Armidale Airport
Date/Time
EST
Temp
°C
App
Temp
°C
Dew
Point
Rel
Hum
%
Delta-T
°C
Wind Press
QNH
hPa
Press
MSL
hPa
Rain
since 9 am
mm
Dir
 
Spd
km/h
Gust
km/h
Spd
kts
Gust
kts
05/08:00pm 12.8 11.4 3.5 53 4.4 CALM 0 0 0 0 1022.4 1021.0 0.0
05/07:30pm 11.5 8.7 3.3 57 3.8 NNE 7 9 4 5 1022.1 1020.8 0.0
05/07:00pm 11.1 8.0 3.4 59 3.6 NE 9 11 5 6 1022.0 1020.6 0.0
05/06:30pm 14.6 12.9 4.0 49 5.2 W 2 6 1 3 1021.8 1020.4 0.0
05/06:00pm 14.5 12.0 3.9 49 5.1 W 6 6 3 3 1021.6 1020.2 0.0
05/05:30pm 13.9 10.9 4.2 52 4.7 W 9 11 5 6 1021.3 1019.8 0.0
05/05:00pm 16.7 13.2 3.7 42 6.4 W 11 13 6 7 1021.1 1019.7 0.0
05/04:30pm 18.8 14.8 3.0 35 7.8 WSW 13 17 7 9 1020.9 1019.5 0.0
05/04:00pm 19.5 15.0 2.4 32 8.3 W 15 19 8 10 1021.0 1019.6 0.0
05/03:30pm 19.9 15.7 4.0 35 8.0 W 15 20 8 11 1020.9 1019.5 0.0
05/03:00pm 20.2 16.2 5.1 37 7.8 WNW 15 20 8 11 1020.8 1019.4 0.0
05/02:30pm 20.5 16.5 4.9 36 8.1 W 15 20 8 11 1020.8 1019.4 0.0
05/02:00pm 20.3 16.3 4.8 36 8.0 W 15 20 8 11 1020.8 1019.4 0.0
05/01:30pm 20.3 16.7 5.1 37 7.9 W 13 19 7 10 1020.9 1019.5 0.0
05/01:00pm 20.0 17.2 5.3 38 7.6 WNW 9 17 5 9 1021.1 1019.7 0.0
05/12:30pm 19.4 16.1 4.4 37 7.6 WNW 11 19 6 10 1021.6 1020.2 0.0
05/12:00pm 19.3 16.6 5.7 41 7.1 WNW 9 15 5 8 1022.0 1020.6 0.0
05/11:30am 18.3 15.9 5.2 42 6.7 W 7 11 4 6 1022.5 1021.1 0.0
05/11:00am 17.6 15.1 4.9 43 6.4 NNE 7 11 4 6 1023.0 1021.7 0.0
05/10:30am 16.7 14.2 4.7 45 6.0 ENE 7 11 4 6 1023.5 1022.1 0.0
05/10:00am 16.5 13.9 6.1 50 5.3 NE 9 15 5 8 1023.8 1022.5 0.0
05/09:30am 15.7 13.1 5.9 52 5.0 NE 9 11 5 6 1023.9 1022.6 0.0
05/09:00am 15.0 12.8 6.0 55 4.6 ENE 7 9 4 5 1023.9 1022.6 0.2
05/08:30am 13.6 11.7 6.5 62 3.6 NE 6 7 3 4 1023.8 1022.5 0.2
05/08:00am 11.3 9.1 6.2 71 2.5 NE 7 7 4 4 1023.5 1022.1 0.2
05/07:30am 9.7 7.5 6.4 80 1.6 NE 7 9 4 5 1023.1 1021.8 0.2
05/07:00am 6.9 4.0 4.9 87 0.9 NE 9 9 5 5 1022.8 1021.4 0.2
05/06:30am 5.7 2.6 3.7 87 0.9 NE 9 9 5 5 1022.5 1021.1 0.2
05/06:00am 5.9 2.9 3.9 87 0.9 NE 9 11 5 6 1022.2 1020.9 0.2
05/05:30am 5.2 2.3 2.6 83 1.1 NE 7 7 4 4 1021.9 1020.5 0.2
05/05:00am 5.8 4.3 2.8 81 1.3 CALM 0 0 0 0 1021.7 1020.3 0.2
05/04:30am 6.3 4.8 2.8 78 1.6 CALM 0 0 0 0 1021.5 1020.1 0.2
05/04:00am 8.2 6.8 3.7 73 2.1 CALM 0 0 0 0 1021.3 1019.8 0.2
05/03:30am 9.0 7.8 4.6 74 2.1 CALM 0 0 0 0 1021.1 1019.7 0.2
05/03:00am 8.3 5.9 4.1 75 1.9 N 6 6 3 3 1021.1 1019.7 0.2
05/02:30am 8.2 5.8 4.4 77 1.8 N 6 7 3 4 1021.3 1019.8 0.2
05/02:00am 7.3 4.9 4.3 81 1.4 NE 6 7 3 4 1021.4 1020.0 0.2
05/01:30am 5.5 2.3 3.0 84 1.1 ENE 9 9 5 5 1021.5 1020.1 0.2
05/01:00am 8.5 7.2 4.1 74 2.0 CALM 0 0 0 0 1021.8 1020.4 0.2
05/12:30am 8.4 7.1 4.0 74 2.0 CALM 0 0 0 0 1021.8 1020.4 0.2
05/12:00am 8.1 5.6 3.9 75 1.9 NE 6 7 3 4 1021.9 1020.5 0.2
 
Date/Time
EST
Temp
°C
App
Temp
°C
Dew
Point
Rel
Hum
%
Delta-T
°C
Wind Press
QNH
hPa
Press
MSL
hPa
Rain
since 9 am
mm
Dir
 
Spd
km/h
Gust
km/h
Spd
kts
Gust
kts
04/11:30pm 7.4 4.6 3.3 75 1.9 NE 7 9 4 5 1022.0 1020.6 0.2
04/11:00pm 7.8 5.4 4.4 79 1.6 N 6 9 3 5 1022.1 1020.8 0.2
04/10:30pm 7.9 4.9 3.9 76 1.8 NE 9 9 5 5 1022.1 1020.8 0.2
04/10:00pm 8.6 6.0 4.0 73 2.1 NE 7 9 4 5 1022.1 1020.8 0.2
04/09:30pm 9.7 7.3 4.3 69 2.6 ENE 6 7 3 4 1022.1 1020.8 0.2
04/09:00pm 9.1 6.4 3.5 68 2.6 E 7 11 4 6 1022.2 1020.9 0.2
04/08:30pm 10.4 7.8 4.1 65 3.0 SW 7 9 4 5 1021.9 1020.5 0.2
04/08:00pm 10.4 7.4 4.1 65 3.0 SW 9 11 5 6 1021.8 1020.4 0.2
04/07:30pm 11.4 7.8 4.8 64 3.2 SSW 13 15 7 8 1021.5 1020.1 0.2
04/07:00pm 11.9 8.3 4.9 62 3.4 SW 13 13 7 7 1021.3 1019.8 0.2
04/06:30pm 12.1 8.8 4.3 59 3.8 WSW 11 11 6 6 1020.8 1019.4 0.2
04/06:00pm 13.2 9.9 4.4 55 4.3 W 11 15 6 8 1020.3 1018.8 0.2
04/05:30pm 13.9 10.9 3.9 51 4.8 WNW 9 11 5 6 1019.7 1018.3 0.2
04/05:00pm 16.1 12.2 3.5 43 6.1 W 13 17 7 9 1019.4 1017.9 0.2
04/04:30pm 17.8 13.1 3.3 38 7.1 W 17 20 9 11 1019.0 1017.6 0.2
04/04:00pm 18.6 14.3 3.3 36 7.6 W 15 20 8 11 1018.8 1017.3 0.2
04/03:30pm 18.8 14.3 4.2 38 7.4 W 17 20 9 11 1018.7 1017.2 0.2
04/03:00pm 18.7 14.2 4.1 38 7.3 W 17 24 9 13 1018.4 1016.9 0.2
04/02:30pm 18.9 13.8 4.3 38 7.4 WSW 20 26 11 14 1018.3 1016.8 0.2
04/02:00pm 18.7 14.9 5.9 43 6.7 WSW 15 20 8 11 1018.4 1016.9 0.2
04/01:30pm 18.7 14.1 5.5 42 6.8 W 19 26 10 14 1018.6 1017.1 0.2
04/01:00pm 18.1 13.7 5.0 42 6.7 WSW 17 24 9 13 1018.7 1017.2 0.2
04/12:30pm 17.6 13.5 6.2 47 5.9 W 17 22 9 12 1019.1 1017.7 0.2
04/12:00pm 17.0 14.7 7.4 53 5.1 WNW 9 15 5 8 1019.6 1018.1 0.2
04/11:30am 16.3 13.0 6.4 52 5.1 W 13 20 7 11 1019.9 1018.5 0.2
04/11:00am 15.9 13.3 6.1 52 5.0 W 9 15 5 8 1020.1 1018.7 0.2
04/10:30am 15.4 12.9 6.7 56 4.5 SSW 9 20 5 11 1020.3 1018.8 0.2
04/10:00am 14.6 11.7 6.7 59 4.1 WSW 11 17 6 9 1020.6 1019.2 0.0
04/09:30am 14.0 11.1 8.0 67 3.2 WSW 13 19 7 10 1020.6 1019.2 0.0
04/09:00am 13.1 10.6 8.4 73 2.5 W 11 19 6 10 1020.6 1019.2 0.2
04/08:30am 12.2 11.2 10.4 89 1.0 W 6 9 3 5 1020.3 1018.8 0.2
04/08:00am 11.4 10.6 11.1 98 0.2 NW 6 9 3 5 1019.8 1018.4 0.2
04/07:30am 9.9 9.2 9.9 100 0.0 WNW 4 6 2 3 1019.5 1018.0 0.2
04/07:18am 9.6 8.2 9.6 100 0.0 NW 7 11 4 6 1019.4 1017.9 0.2
04/07:00am 8.3 6.2 8.3 100 0.0 NW 9 11 5 6 1019.3 1017.8 0.2
04/06:30am 7.7 5.5 7.7 100 0.0 WNW 9 13 5 7 1018.8 1017.3 0.2
04/06:00am 8.3 6.2 8.3 100 0.0 WNW 9 13 5 7 1018.4 1016.9 0.2
04/05:47am 8.3 5.4 8.2 99 0.1 WNW 13 15 7 8 1018.0 1016.6 0.2
04/05:30am 8.7 6.3 8.6 99 0.1 W 11 13 6 7 1017.7 1016.2 0.2
04/05:15am 9.4 6.8 9.3 99 0.1 W 13 13 7 7 1017.7 1016.2 0.2
04/05:00am 10.2 7.4 10.1 99 0.1 W 15 17 8 9 1017.6 1016.1 0.2
04/04:30am 10.6 8.3 10.4 99 0.1 W 13 19 7 10 1017.6 1016.1 0.2
04/04:00am 10.8 7.8 10.8 100 0.0 WNW 17 24 9 13 1017.3 1015.8 0.2
04/03:43am 10.6 8.3 10.6 100 0.0 W 13 20 7 11 1017.1 1015.6 0.2
04/03:30am 10.4 8.1 10.4 100 0.0 W 13 17 7 9 1017.0 1015.5 0.2
04/03:24am 10.5 8.2 10.5 100 0.0 W 13 17 7 9 1017.0 1015.5 0.2
04/03:13am 10.4 8.9 10.4 100 0.0 WSW 9 13 5 7 1016.9 1015.4 0.2
04/03:00am 10.2 8.6 10.2 100 0.0 WSW 9 11 5 6 1016.9 1015.4 0.2
04/02:30am 9.7 7.2 9.6 99 0.1 W 13 17 7 9 1016.9 1015.4 0.2
04/02:00am 10.2 7.8 10.1 99 0.1 WNW 13 15 7 8 1017.0 1015.5 0.2
04/01:30am 10.7 7.7 10.5 99 0.1 WNW 17 20 9 11 1017.0 1015.5 0.2
04/01:26am 10.6 7.5 10.4 99 0.1 WNW 17 20 9 11 1017.0 1015.5 0.2
04/01:00am 11.1 7.6 10.9 99 0.1 WNW 20 33 11 18 1016.8 1015.3 0.2
04/12:30am 10.8 7.8 10.6 99 0.1 WNW 17 22 9 12 1016.9 1015.4 0.2
04/12:15am 10.7 7.3 10.5 99 0.1 WNW 19 26 10 14 1016.9 1015.4 0.2
04/12:06am 10.8 7.2 10.6 99 0.1 WNW 20 28 11 15 1016.9 1015.4 0.2
04/12:00am 10.8 7.2 10.6 99 0.1 WNW 20 26 11 14 1016.9 1015.4 0.2
 
Date/Time
EST
Temp
°C
App
Temp
°C
Dew
Point
Rel
Hum
%
Delta-T
°C
Wind Press
QNH
hPa
Press
MSL
hPa
Rain
since 9 am
mm
Dir
 
Spd
km/h
Gust
km/h
Spd
kts
Gust
kts
03/11:53pm 10.9 7.3 10.7 99 0.1 WNW 20 26 11 14 1016.9 1015.4 0.2
03/11:30pm 11.2 7.4 11.0 99 0.1 WNW 22 30 12 16 1016.8 1015.3 0.2
03/11:15pm 11.3 6.7 11.1 99 0.1 WNW 26 35 14 19 1016.6 1015.1 0.2
03/11:00pm 11.5 6.9 11.2 98 0.2 WNW 26 33 14 18 1016.7 1015.2 0.2
03/10:30pm 11.8 7.7 11.5 98 0.2 WNW 24 33 13 18 1016.7 1015.2 0.2
03/10:20pm 11.8 7.7 11.5 98 0.2 WNW 24 33 13 18 1016.7 1015.2 0.2
03/10:00pm 11.8 8.1 11.5 98 0.2 WNW 22 35 12 19 1016.7 1015.2 0.2
03/09:30pm 11.6 8.2 11.3 98 0.2 WNW 20 26 11 14 1016.6 1015.1 0.2
03/09:00pm 11.5 7.6 10.7 95 0.4 WNW 22 28 12 15 1016.4 1014.8 0.2
03/08:30pm 12.1 7.7 10.5 90 0.9 WNW 24 33 13 18 1016.4 1014.8 0.2
03/08:00pm 12.2 7.8 10.3 88 1.0 WNW 24 35 13 19 1016.5 1015.0 0.2
03/07:30pm 12.5 8.9 10.4 87 1.2 WNW 20 30 11 16 1016.4 1014.8 0.2
03/07:00pm 12.9 9.1 9.7 81 1.7 NW 20 32 11 17 1016.3 1014.7 0.2
03/06:30pm 12.9 9.0 9.5 80 1.8 NW 20 26 11 14 1015.5 1013.9 0.2
03/06:00pm 13.0 9.3 9.3 78 2.0 NW 19 26 10 14 1015.1 1013.6 0.2
03/05:30pm 13.4 10.0 9.3 76 2.2 NW 17 22 9 12 1014.9 1013.4 0.2
03/05:00pm 14.9 10.2 9.3 69 3.0 NW 24 32 13 17 1014.4 1012.8 0.2
03/04:30pm 15.3 11.3 9.0 66 3.4 WNW 20 26 11 14 1014.4 1012.8 0.2
03/04:00pm 15.6 11.2 9.1 65 3.5 WNW 22 33 12 18 1014.5 1012.9 0.2
03/03:30pm 16.6 11.7 8.3 58 4.5 NW 24 39 13 21 1014.4 1012.8 0.2
03/03:00pm 17.3 12.5 8.7 57 4.7 W 24 37 13 20 1014.4 1012.8 0.2
03/02:30pm 17.5 12.6 8.6 56 4.8 WNW 24 33 13 18 1014.3 1012.7 0.2
03/02:00pm 16.4 10.8 8.9 61 4.1 WNW 28 39 15 21 1014.5 1012.9 0.2
03/01:30pm 16.9 11.8 9.3 61 4.2 NW 26 37 14 20 1014.6 1013.0 0.2
03/01:00pm 16.6 11.4 8.8 60 4.2 WNW 26 37 14 20 1015.0 1013.5 0.2
03/12:30pm 15.9 11.4 10.0 68 3.3 WNW 24 35 13 19 1015.6 1014.1 0.2
03/12:00pm 15.7 11.1 9.6 67 3.3 WNW 24 33 13 18 1016.1 1014.6 0.0
03/11:30am 15.2 10.9 10.6 74 2.6 W 24 30 13 16 1016.4 1014.8 0.0
03/11:00am 14.7 10.1 10.9 78 2.1 W 26 35 14 19 1016.7 1015.2 0.0
03/10:30am 15.1 10.4 10.7 75 2.5 WNW 26 32 14 17 1016.9 1015.4 0.0
03/10:14am 14.8 10.3 11.4 80 1.9 WNW 26 35 14 19 1017.1 1015.6 0.0
03/10:00am 14.3 9.4 11.3 82 1.7 WNW 28 35 15 19 1017.4 1015.9 0.0
03/09:30am 14.5 12.2 13.0 91 0.9 WNW 17 24 9 13 1017.6 1016.1 0.0
03/09:16am 13.5 11.2 13.0 97 0.3 SW 17 43 9 23 1017.5 1016.0 0.0
03/09:00am 12.7 10.2 12.4 98 0.2 WNW 17 22 9 12 1017.5 1016.0 3.4
03/08:48am 12.6 9.7 12.3 98 0.2 WNW 19 22 10 12 1017.5 1016.0 3.4
03/08:41am 12.4 9.9 12.2 99 0.1 WNW 17 20 9 11 1017.6 1016.1 3.4
03/08:31am 12.3 9.4 12.3 100 0.0 WNW 19 22 10 12 1017.6 1016.1 3.4
03/08:30am 12.2 9.3 12.2 100 0.0 WNW 19 24 10 13 1017.6 1016.1 3.4
03/08:29am 11.9 8.9 11.9 100 0.0 WNW 19 24 10 13 1017.5 1016.0 3.4
03/08:15am 12.2 9.7 12.2 100 0.0 WNW 17 24 9 13 1017.4 1015.9 3.4
03/08:00am 11.7 9.4 11.7 100 0.0 WNW 15 20 8 11 1017.5 1016.0 3.4
03/07:54am 11.7 9.8 11.7 100 0.0 WNW 13 15 7 8 1017.5 1016.0 3.4
03/07:30am 11.5 10.6 11.5 100 0.0 W 7 9 4 5 1017.5 1016.0 3.4
03/07:21am 11.4 10.5 11.4 100 0.0 W 7 9 4 5 1017.5 1016.0 3.4
03/07:00am 11.1 9.8 11.1 100 0.0 WNW 9 9 5 5 1017.3 1015.8 3.4
03/06:35am 11.0 9.6 11.0 100 0.0 WNW 9 11 5 6 1017.3 1015.8 3.4
03/06:30am 10.9 9.5 10.9 100 0.0 WNW 9 11 5 6 1017.3 1015.8 3.4
03/06:00am 10.9 9.5 10.9 100 0.0 W 9 11 5 6 1017.0 1015.5 3.4
03/05:30am 11.1 10.1 11.1 100 0.0 WNW 7 11 4 6 1017.0 1015.5 3.4
03/05:00am 11.0 9.2 11.0 100 0.0 WNW 11 15 6 8 1016.7 1015.2 3.4
03/04:30am 10.8 9.7 10.8 100 0.0 W 7 9 4 5 1016.4 1014.8 3.4
03/04:00am 10.8 9.4 10.8 100 0.0 WNW 9 15 5 8 1015.9 1014.4 3.4
03/03:30am 10.6 8.0 10.6 100 0.0 W 15 17 8 9 1015.9 1014.4 3.4
03/03:00am 10.0 8.0 10.0 100 0.0 W 11 13 6 7 1016.0 1014.5 3.4
03/02:30am 8.7 5.9 8.6 99 0.1 W 13 13 7 7 1016.3 1014.7 3.4
03/02:16am 9.1 6.8 9.0 99 0.1 W 11 13 6 7 1016.5 1015.0 3.4
03/02:07am 9.4 6.8 9.3 99 0.1 W 13 15 7 8 1016.6 1015.1 3.4
03/02:00am 9.4 6.8 9.3 99 0.1 W 13 15 7 8 1016.7 1015.2 3.4
03/01:30am 8.9 6.5 8.6 98 0.2 W 11 11 6 6 1017.0 1015.5 3.4
03/01:00am 9.9 8.5 9.6 98 0.2 W 7 11 4 6 1017.1 1015.6 3.4
03/12:30am 10.3 9.2 10.0 98 0.2 WNW 6 7 3 4 1017.5 1016.0 3.4
03/12:00am 11.1 9.7 10.8 98 0.2 NW 9 11 5 6 1018.0 1016.6 3.4
 
Date/Time
EST
Temp
°C
App
Temp
°C
Dew
Point
Rel
Hum
%
Delta-T
°C
Wind Press
QNH
hPa
Press
MSL
hPa
Rain
since 9 am
mm
Dir
 
Spd
km/h
Gust
km/h
Spd
kts
Gust
kts
02/11:30pm 10.9 9.8 10.7 99 0.1 NW 7 9 4 5 1018.1 1016.7 3.4
02/11:00pm 10.6 10.8 10.4 99 0.1 CALM 0 0 0 0 1018.3 1016.8 3.4
02/10:30pm 10.5 10.2 10.2 98 0.2 SE 2 7 1 4 1018.4 1016.9 3.2
02/10:00pm 11.3 9.5 11.0 98 0.2 ENE 11 13 6 7 1018.3 1016.8 3.2
02/09:30pm 11.9 10.3 11.7 99 0.1 ENE 11 13 6 7 1018.5 1017.0 3.2
02/09:00pm 12.1 10.6 11.9 99 0.1 ENE 11 17 6 9 1018.7 1017.2 3.2
02/08:30pm 12.1 10.2 11.9 99 0.1 NE 13 17 7 9 1019.3 1017.8 3.2

Other Formats:

Comma delimited format used in spreadsheet applications
http://www.bom.gov.au/fwo/IDN60801/IDN60801.95773.axf

JavaScript Object Notation format (JSON) in row-major order
http://www.bom.gov.au/fwo/IDN60801/IDN60801.95773.json